createdAt,value
2023-01-13T00:00:42.322Z,2.75
2023-01-13T00:01:44.649Z,4.22
2023-01-13T00:02:46.894Z,2.88
2023-01-13T00:03:49.434Z,3.58
2023-01-13T00:04:51.815Z,2.35
2023-01-13T00:05:54.094Z,2.97
2023-01-13T00:06:56.360Z,4.47
2023-01-13T00:07:58.576Z,3.53
2023-01-13T00:09:00.773Z,2.85
2023-01-13T00:10:03.036Z,2.65
2023-01-13T00:11:05.736Z,4.20
2023-01-13T00:12:07.961Z,3.88
2023-01-13T00:13:10.524Z,3.80
2023-01-13T00:14:12.697Z,2.85
2023-01-13T00:15:15.034Z,3.92
2023-01-13T00:16:18.735Z,3.75
2023-01-13T00:17:22.149Z,4.30
2023-01-13T00:18:24.396Z,2.90
2023-01-13T00:19:26.561Z,2.55
2023-01-13T00:20:28.866Z,4.22
2023-01-13T00:21:31.019Z,3.95
2023-01-13T00:22:34.957Z,3.00
2023-01-13T00:23:37.205Z,3.22
2023-01-13T00:24:39.386Z,2.03
2023-01-13T00:25:41.666Z,2.08
2023-01-13T00:26:43.869Z,4.07
2023-01-13T00:27:46.063Z,1.40
2023-01-13T00:28:48.708Z,2.97
2023-01-13T00:29:50.865Z,4.22
2023-01-13T00:30:53.156Z,5.13
2023-01-13T00:31:55.529Z,2.45
2023-01-13T00:32:57.694Z,3.42
2023-01-13T00:34:01.579Z,2.80
2023-01-13T00:35:04.094Z,3.10
2023-01-13T00:36:08.079Z,3.00
2023-01-13T00:37:12.965Z,3.22
2023-01-13T00:38:15.094Z,3.53
2023-01-13T00:39:17.363Z,3.03
2023-01-13T00:40:19.702Z,3.35
2023-01-13T00:41:23.379Z,4.28
2023-01-13T00:42:43.905Z,2.63
2023-01-13T00:43:46.872Z,2.30
2023-01-13T00:44:49.057Z,2.75
2023-01-13T00:45:51.607Z,3.67
2023-01-13T00:46:53.895Z,2.58
2023-01-13T00:47:56.103Z,3.17
2023-01-13T00:48:58.315Z,2.70
2023-01-13T00:50:00.487Z,4.30
2023-01-13T00:51:06.505Z,2.67
2023-01-13T00:52:08.663Z,2.80
2023-01-13T00:53:10.929Z,2.33
2023-01-13T00:54:13.121Z,1.67
2023-01-13T00:55:15.357Z,2.75
2023-01-13T00:56:34.099Z,3.50
2023-01-13T00:57:41.126Z,1.67
2023-01-13T00:58:44.765Z,2.72
2023-01-13T00:59:49.540Z,3.17
2023-01-13T01:00:52.078Z,1.98
2023-01-13T01:01:54.500Z,1.92
2023-01-13T01:02:56.737Z,2.30
2023-01-13T01:03:59.202Z,2.35
2023-01-13T01:05:01.428Z,2.15
2023-01-13T01:06:09.066Z,2.67
2023-01-13T01:07:11.243Z,6.13
2023-01-13T01:08:13.420Z,3.22
2023-01-13T01:09:16.717Z,2.25
2023-01-13T01:10:18.921Z,1.73
2023-01-13T01:11:27.492Z,2.58
2023-01-13T01:12:29.798Z,1.65
2023-01-13T01:13:32.310Z,2.03
2023-01-13T01:14:34.523Z,5.15
2023-01-13T01:15:40.290Z,2.35
2023-01-13T01:16:42.508Z,1.10
2023-01-13T01:17:44.689Z,2.42
2023-01-13T01:18:48.365Z,3.08
2023-01-13T01:19:50.597Z,2.03
2023-01-13T01:20:52.819Z,2.42
2023-01-13T01:21:55.165Z,2.30
2023-01-13T01:22:57.360Z,1.38
2023-01-13T01:24:02.585Z,2.05
2023-01-13T01:25:05.398Z,2.80
2023-01-13T01:26:16.601Z,4.40
2023-01-13T01:27:18.762Z,1.88
2023-01-13T01:28:21.141Z,4.28
2023-01-13T01:29:23.305Z,3.03
2023-01-13T01:30:26.690Z,1.40
2023-01-13T01:31:32.494Z,2.65
2023-01-13T01:32:34.812Z,2.13
2023-01-13T01:33:36.955Z,1.88
2023-01-13T01:34:39.174Z,1.90
2023-01-13T01:35:41.510Z,4.97
2023-01-13T01:36:43.709Z,2.47
2023-01-13T01:37:45.904Z,2.33
2023-01-13T01:38:49.352Z,3.47
2023-01-13T01:39:51.559Z,2.97
2023-01-13T01:40:53.935Z,3.92
2023-01-13T01:42:14.906Z,2.70
2023-01-13T01:43:39.063Z,2.72
2023-01-13T01:45:20.399Z,2.25
2023-01-13T01:46:22.612Z,1.70
2023-01-13T01:47:26.333Z,2.08
2023-01-13T01:48:31.635Z,3.20
2023-01-13T01:49:36.852Z,1.85
2023-01-13T01:50:40.115Z,2.05
2023-01-13T01:51:46.663Z,1.92
2023-01-13T01:52:55.790Z,3.40
2023-01-13T01:54:00.629Z,2.45
2023-01-13T01:55:08.631Z,1.27
2023-01-13T01:56:11.220Z,1.40
2023-01-13T01:57:19.997Z,1.27
2023-01-13T01:58:34.780Z,1.88
2023-01-13T01:59:38.849Z,0.88
2023-01-13T02:02:10.141Z,2.17
2023-01-13T02:03:13.305Z,1.33
2023-01-13T02:04:20.477Z,3.05
2023-01-13T02:05:23.287Z,2.15
2023-01-13T02:06:25.784Z,2.60
2023-01-13T02:07:31.568Z,3.83
2023-01-13T02:08:35.476Z,1.60
2023-01-13T02:09:37.704Z,2.70
2023-01-13T02:10:41.475Z,3.17
2023-01-13T02:12:01.996Z,2.10
2023-01-13T02:13:08.455Z,2.55
2023-01-13T02:14:10.627Z,1.58
2023-01-13T02:15:17.732Z,2.70
2023-01-13T02:16:24.745Z,4.10
2023-01-13T02:17:53.078Z,3.00
2023-01-13T02:19:05.443Z,2.60
2023-01-13T02:20:29.099Z,2.20
2023-01-13T02:22:08.734Z,2.58
2023-01-13T02:24:13.576Z,2.45
2023-01-13T02:25:52.920Z,2.47
2023-01-13T02:27:34.558Z,3.03
2023-01-13T02:29:15.634Z,1.98
2023-01-13T02:30:57.369Z,6.93
2023-01-13T02:32:09.004Z,2.30
2023-01-13T02:33:35.577Z,2.53
2023-01-13T02:34:59.088Z,3.33
2023-01-13T02:36:24.293Z,1.42
2023-01-13T02:37:30.302Z,2.00
2023-01-13T02:38:43.825Z,3.45
2023-01-13T02:39:57.187Z,2.55
2023-01-13T02:41:34.324Z,2.10
2023-01-13T02:43:06.547Z,1.77
2023-01-13T02:44:11.372Z,2.38
2023-01-13T02:45:19.242Z,2.85
2023-01-13T02:46:31.365Z,3.53
2023-01-13T02:47:37.825Z,3.83
2023-01-13T02:48:43.079Z,1.33
2023-01-13T02:49:50.769Z,2.33
2023-01-13T02:51:09.923Z,2.95
2023-01-13T02:52:25.613Z,2.95
2023-01-13T02:53:38.927Z,2.70
2023-01-13T02:54:47.753Z,2.25
2023-01-13T02:55:53.663Z,2.35
2023-01-13T02:56:58.327Z,2.15
2023-01-13T02:58:04.174Z,2.83
2023-01-13T02:59:06.858Z,1.67
2023-01-13T03:00:12.400Z,2.15
2023-01-13T03:01:14.687Z,1.75
2023-01-13T03:02:21.398Z,3.35
2023-01-13T03:03:23.925Z,2.40
2023-01-13T03:04:51.504Z,3.15
2023-01-13T03:06:00.600Z,0.85
2023-01-13T03:07:23.380Z,2.30
2023-01-13T03:08:32.875Z,1.63
2023-01-13T03:09:45.065Z,0.65
2023-01-13T03:11:09.992Z,2.08
2023-01-13T03:12:20.609Z,2.70
2023-01-13T03:13:34.782Z,2.40
2023-01-13T03:14:57.234Z,2.67
2023-01-13T03:16:18.241Z,2.22
2023-01-13T03:17:43.968Z,1.75
2023-01-13T03:18:58.168Z,3.03
2023-01-13T03:20:09.117Z,1.45
2023-01-13T03:21:34.233Z,1.25
2023-01-13T03:23:02.890Z,1.45
2023-01-13T03:24:17.871Z,1.17
2023-01-13T03:25:28.531Z,1.58
2023-01-13T03:28:22.938Z,2.30
2023-01-13T03:29:30.698Z,3.28
2023-01-13T03:30:35.787Z,3.60
2023-01-13T03:32:30.876Z,3.03
2023-01-13T03:33:40.580Z,2.20
2023-01-13T03:34:54.410Z,2.47
2023-01-13T03:36:12.022Z,3.15
2023-01-13T03:37:20.685Z,2.95
2023-01-13T03:38:37.476Z,2.22
2023-01-13T03:40:03.106Z,2.53
2023-01-13T03:41:30.725Z,2.40
2023-01-13T03:42:36.725Z,0.93
2023-01-13T03:44:06.578Z,2.30
2023-01-13T03:45:17.199Z,2.97
2023-01-13T03:46:29.451Z,0.93
2023-01-13T03:48:54.525Z,3.65
2023-01-13T03:50:13.864Z,2.25
2023-01-13T03:51:24.099Z,2.13
2023-01-13T03:52:56.413Z,1.83
2023-01-13T03:54:18.613Z,1.70
2023-01-13T03:55:31.257Z,2.55
2023-01-13T03:56:41.167Z,2.35
2023-01-13T03:57:51.332Z,1.52
2023-01-13T03:58:54.526Z,1.65
2023-01-13T04:00:00.815Z,1.85
2023-01-13T04:01:12.857Z,3.35
2023-01-13T04:02:41.278Z,1.42
2023-01-13T04:04:05.400Z,1.13
2023-01-13T04:05:10.208Z,1.20
2023-01-13T04:06:15.106Z,2.20
2023-01-13T04:07:47.736Z,3.17
2023-01-13T04:09:01.592Z,0.68
2023-01-13T04:10:08.801Z,1.27
2023-01-13T04:11:18.458Z,1.60
2023-01-13T04:12:48.544Z,1.58
2023-01-13T04:13:52.705Z,0.77
2023-01-13T04:14:56.047Z,2.25
2023-01-13T04:15:59.823Z,1.48
2023-01-13T04:17:02.115Z,2.10
2023-01-13T04:18:22.103Z,1.10
2023-01-13T04:19:24.598Z,1.73
2023-01-13T04:20:26.928Z,1.27
2023-01-13T04:21:30.622Z,2.45
2023-01-13T04:22:32.809Z,1.45
2023-01-13T04:23:35.230Z,1.20
2023-01-13T04:24:37.430Z,3.40
2023-01-13T04:25:41.015Z,1.98
2023-01-13T04:26:43.343Z,2.75
2023-01-13T04:27:45.597Z,1.40
2023-01-13T04:28:47.840Z,1.83
2023-01-13T04:29:50.052Z,0.77
2023-01-13T04:30:52.615Z,2.53
2023-01-13T04:31:54.925Z,1.85
2023-01-13T04:32:57.157Z,1.50
2023-01-13T04:33:59.401Z,1.10
2023-01-13T04:35:01.746Z,1.20
2023-01-13T04:36:04.168Z,2.33
2023-01-13T04:37:09.211Z,1.60
2023-01-13T04:38:14.348Z,2.95
2023-01-13T04:39:16.662Z,0.82
2023-01-13T04:40:19.052Z,0.68
2023-01-13T04:41:21.390Z,0.82
2023-01-13T04:42:23.520Z,1.75
2023-01-13T04:43:25.709Z,1.63
2023-01-13T04:44:29.166Z,1.95
2023-01-13T04:45:31.635Z,1.50
2023-01-13T04:46:33.936Z,1.85
2023-01-13T04:47:36.360Z,1.10
2023-01-13T04:48:38.536Z,1.27
2023-01-13T04:49:40.737Z,1.30
2023-01-13T04:50:42.904Z,1.13
2023-01-13T04:51:45.154Z,2.83
2023-01-13T04:52:47.914Z,0.93
2023-01-13T04:53:52.120Z,1.25
2023-01-13T04:54:54.337Z,1.73
2023-01-13T04:55:56.589Z,1.05
2023-01-13T04:56:58.844Z,1.27
2023-01-13T04:58:05.698Z,0.80
2023-01-13T04:59:09.676Z,0.70
2023-01-13T05:00:13.876Z,1.92
2023-01-13T05:01:16.204Z,1.42
2023-01-13T05:02:21.050Z,3.00
2023-01-13T05:03:24.374Z,1.50
2023-01-13T05:04:26.723Z,1.65
2023-01-13T05:05:30.264Z,1.17
2023-01-13T05:06:32.687Z,1.58
2023-01-13T05:07:35.045Z,1.40
2023-01-13T05:08:37.259Z,1.25
2023-01-13T05:09:39.516Z,1.08
2023-01-13T05:10:41.762Z,0.80
2023-01-13T05:12:02.902Z,1.40
2023-01-13T05:13:23.436Z,0.88
2023-01-13T05:14:44.556Z,1.65
2023-01-13T05:16:22.109Z,0.73
2023-01-13T05:17:25.283Z,1.05
2023-01-13T05:18:29.628Z,3.60
2023-01-13T05:19:36.789Z,1.25
2023-01-13T05:20:39.108Z,1.70
2023-01-13T05:22:00.179Z,1.30
2023-01-13T05:23:20.737Z,1.02
2023-01-13T05:24:41.374Z,0.80
2023-01-13T05:25:44.554Z,0.90
2023-01-13T05:26:46.839Z,0.98
2023-01-13T05:27:49.759Z,1.60
2023-01-13T05:28:52.010Z,0.85
2023-01-13T05:29:54.986Z,1.13
2023-01-13T05:30:57.271Z,1.65
2023-01-13T05:32:02.464Z,1.10
2023-01-13T05:33:05.237Z,1.63
2023-01-13T05:34:07.475Z,1.02
2023-01-13T05:35:09.843Z,1.70
2023-01-13T05:36:12.024Z,0.73
2023-01-13T05:37:14.466Z,0.85
2023-01-13T05:38:17.951Z,1.45
2023-01-13T05:39:20.197Z,1.55
2023-01-13T05:40:40.901Z,1.35
2023-01-13T05:42:01.420Z,1.73
2023-01-13T05:43:21.151Z,1.13
2023-01-13T05:44:23.407Z,0.75
2023-01-13T05:45:25.672Z,0.52
2023-01-13T05:46:27.924Z,1.05
2023-01-13T05:47:31.360Z,2.60
2023-01-13T05:48:36.070Z,1.83
2023-01-13T05:49:38.255Z,1.17
2023-01-13T05:50:40.499Z,2.10
2023-01-13T05:51:42.711Z,2.67
2023-01-13T05:52:44.933Z,0.68
2023-01-13T05:53:47.383Z,1.17
2023-01-13T05:54:49.666Z,1.40
2023-01-13T05:55:52.446Z,1.33
2023-01-13T05:56:54.671Z,1.27
2023-01-13T05:57:56.948Z,1.13
2023-01-13T05:58:59.137Z,0.63
2023-01-13T06:00:01.392Z,0.90
2023-01-13T06:02:15.825Z,1.08
2023-01-13T06:03:21.953Z,1.50
2023-01-13T06:04:24.820Z,1.85
2023-01-13T06:05:27.365Z,0.85
2023-01-13T06:06:29.886Z,1.33
2023-01-13T06:07:32.362Z,1.23
2023-01-13T06:08:35.127Z,2.10
2023-01-13T06:09:37.510Z,1.58
2023-01-13T06:10:39.840Z,1.70
2023-01-13T06:11:42.101Z,1.38
2023-01-13T06:12:44.687Z,1.70
2023-01-13T06:13:46.943Z,1.20
2023-01-13T06:14:50.282Z,1.05
2023-01-13T06:15:56.782Z,0.50
2023-01-13T06:16:59.500Z,0.30
2023-01-13T06:18:03.802Z,1.23
2023-01-13T06:19:11.955Z,1.17
2023-01-13T06:20:16.388Z,3.42
2023-01-13T06:21:18.926Z,0.40
2023-01-13T06:22:28.360Z,0.52
2023-01-13T06:23:35.198Z,2.30
2023-01-13T06:24:37.986Z,1.65
2023-01-13T06:25:40.128Z,2.53
2023-01-13T06:26:43.136Z,0.88
2023-01-13T06:27:45.693Z,2.05
2023-01-13T06:28:51.147Z,1.73
2023-01-13T06:29:53.694Z,0.73
2023-01-13T06:31:00.020Z,1.35
2023-01-13T06:32:06.034Z,0.88
2023-01-13T06:33:13.678Z,1.33
2023-01-13T06:34:16.302Z,1.98
2023-01-13T06:35:33.439Z,1.52
2023-01-13T06:36:41.170Z,1.40
2023-01-13T06:37:44.928Z,0.80
2023-01-13T06:38:51.022Z,0.38
2023-01-13T06:39:58.096Z,1.40
2023-01-13T06:41:00.903Z,0.63
2023-01-13T06:42:22.985Z,1.63
2023-01-13T06:43:25.646Z,1.95
2023-01-13T06:44:28.831Z,1.70
2023-01-13T06:45:31.839Z,2.15
2023-01-13T06:46:38.344Z,0.45
2023-01-13T06:47:41.327Z,1.48
2023-01-13T06:48:43.626Z,0.63
2023-01-13T06:49:45.828Z,0.50
2023-01-13T06:50:48.084Z,1.75
2023-01-13T06:51:50.550Z,1.10
2023-01-13T06:52:53.155Z,1.30
2023-01-13T06:53:55.432Z,0.52
2023-01-13T06:54:57.795Z,0.75
2023-01-13T06:56:00.013Z,0.88
2023-01-13T06:57:02.332Z,0.80
2023-01-13T06:58:04.567Z,0.52
2023-01-13T06:59:06.756Z,2.55
2023-01-13T07:00:09.378Z,1.83
2023-01-13T07:01:11.811Z,2.05
2023-01-13T07:02:14.156Z,0.57
2023-01-13T07:03:17.847Z,1.55
2023-01-13T07:04:20.031Z,1.05
2023-01-13T07:05:22.322Z,1.40
2023-01-13T07:06:24.716Z,1.30
2023-01-13T07:07:27.490Z,1.35
2023-01-13T07:08:29.681Z,1.25
2023-01-13T07:09:31.875Z,3.03
2023-01-13T07:10:34.769Z,1.35
2023-01-13T07:11:37.073Z,1.80
2023-01-13T07:12:59.447Z,1.85
2023-01-13T07:14:20.589Z,0.85
2023-01-13T07:15:23.344Z,1.02
2023-01-13T07:16:28.022Z,0.70
2023-01-13T07:17:30.324Z,1.05
2023-01-13T07:18:34.550Z,0.57
2023-01-13T07:19:36.799Z,0.30
2023-01-13T07:20:39.010Z,3.20
2023-01-13T07:21:41.270Z,2.05
2023-01-13T07:22:43.750Z,0.82
2023-01-13T07:23:47.506Z,1.15
2023-01-13T07:24:50.312Z,2.35
2023-01-13T07:25:55.101Z,1.05
2023-01-13T07:26:57.321Z,3.08
2023-01-13T07:27:59.634Z,1.17
2023-01-13T07:29:01.877Z,1.95
2023-01-13T07:30:06.061Z,2.58
2023-01-13T07:31:17.009Z,1.00
2023-01-13T07:32:19.225Z,1.52
2023-01-13T07:33:21.708Z,1.08
2023-01-13T07:34:23.977Z,0.90
2023-01-13T07:35:26.184Z,1.33
2023-01-13T07:36:28.469Z,0.88
2023-01-13T07:37:35.540Z,1.63
2023-01-13T07:38:39.721Z,0.98
2023-01-13T07:39:41.980Z,0.40
2023-01-13T07:40:44.270Z,1.77
2023-01-13T07:42:04.899Z,0.63
2023-01-13T07:43:27.860Z,2.53
2023-01-13T07:44:30.152Z,0.82
2023-01-13T07:45:32.489Z,0.85
2023-01-13T07:46:34.680Z,0.98
2023-01-13T07:47:37.116Z,1.42
2023-01-13T07:48:39.484Z,2.17
2023-01-13T07:49:41.681Z,2.13
2023-01-13T07:50:44.280Z,2.08
2023-01-13T07:51:46.499Z,3.47
2023-01-13T07:52:48.657Z,1.90
2023-01-13T07:53:50.842Z,2.83
2023-01-13T07:54:53.077Z,2.45
2023-01-13T07:55:57.099Z,4.97
2023-01-13T07:56:59.242Z,6.95
2023-01-13T07:58:01.469Z,2.47
2023-01-13T07:59:03.710Z,2.50
2023-01-13T08:00:06.552Z,3.55
2023-01-13T08:01:12.061Z,3.58
2023-01-13T08:02:14.664Z,2.95
2023-01-13T08:03:17.669Z,10.40
2023-01-13T08:04:20.106Z,4.00
2023-01-13T08:05:22.274Z,2.50
2023-01-13T08:06:25.593Z,2.25
2023-01-13T08:07:41.966Z,4.13
2023-01-13T08:08:50.673Z,2.45
2023-01-13T08:09:52.936Z,2.58
2023-01-13T08:10:58.985Z,1.63
2023-01-13T08:12:39.766Z,2.13
2023-01-13T08:13:58.375Z,1.30
2023-01-13T08:15:00.688Z,2.65
2023-01-13T08:16:09.317Z,1.70
2023-01-13T08:17:11.583Z,5.30
2023-01-13T08:18:14.517Z,2.40
2023-01-13T08:19:16.766Z,12.50
2023-01-13T08:20:19.353Z,4.15
2023-01-13T08:21:21.667Z,2.10
2023-01-13T08:22:24.004Z,3.45
2023-01-13T08:23:26.262Z,2.45
2023-01-13T08:24:28.695Z,3.60
2023-01-13T08:25:31.475Z,1.75
2023-01-13T08:26:33.660Z,2.60
2023-01-13T08:27:36.344Z,3.70
2023-01-13T08:28:42.026Z,4.93
2023-01-13T08:29:44.260Z,3.83
2023-01-13T08:30:46.542Z,3.65
2023-01-13T08:31:48.899Z,4.10
2023-01-13T08:32:51.231Z,3.17
2023-01-13T08:33:53.486Z,3.40
2023-01-13T08:34:55.716Z,9.57
2023-01-13T08:35:58.700Z,5.03
2023-01-13T08:37:00.940Z,3.92
2023-01-13T08:38:03.259Z,3.58
2023-01-13T08:39:05.581Z,4.35
2023-01-13T08:40:08.794Z,2.38
2023-01-13T08:41:36.387Z,4.25
2023-01-13T08:42:39.123Z,4.13
2023-01-13T08:43:42.321Z,3.42
2023-01-13T08:44:58.440Z,6.25
2023-01-13T08:46:04.393Z,7.10
2023-01-13T08:47:06.885Z,3.63
2023-01-13T08:48:09.521Z,3.38
2023-01-13T08:49:11.875Z,3.80
2023-01-13T08:50:14.563Z,3.55
2023-01-13T08:51:17.141Z,6.65
2023-01-13T08:52:19.921Z,6.50
2023-01-13T08:53:22.140Z,4.43
2023-01-13T08:54:24.511Z,3.17
2023-01-13T08:55:26.852Z,5.93
2023-01-13T08:56:30.093Z,5.15
2023-01-13T08:57:32.463Z,2.40
2023-01-13T08:58:34.707Z,3.65
2023-01-13T08:59:37.009Z,4.50
2023-01-13T09:00:39.291Z,5.25
2023-01-13T09:01:41.859Z,3.25
2023-01-13T09:02:44.281Z,3.33
2023-01-13T09:03:46.461Z,8.63
2023-01-13T09:04:49.401Z,3.10
2023-01-13T09:05:51.784Z,4.85
2023-01-13T09:06:55.307Z,4.85
2023-01-13T09:07:57.548Z,2.65
2023-01-13T09:09:00.272Z,3.60
2023-01-13T09:10:05.381Z,5.30
2023-01-13T09:11:39.322Z,4.32
2023-01-13T09:13:00.214Z,7.88
2023-01-13T09:14:03.465Z,5.72
2023-01-13T09:15:06.559Z,5.65
2023-01-13T09:16:08.875Z,6.78
2023-01-13T09:17:11.616Z,3.28
2023-01-13T09:18:14.358Z,4.13
2023-01-13T09:19:16.642Z,6.72
2023-01-13T09:20:19.253Z,4.18
2023-01-13T09:21:22.341Z,3.85
2023-01-13T09:22:27.155Z,7.45
2023-01-13T09:23:29.383Z,8.05
2023-01-13T09:24:32.031Z,8.20
2023-01-13T09:25:36.617Z,4.60
2023-01-13T09:26:39.010Z,7.75
2023-01-13T09:27:41.306Z,8.07
2023-01-13T09:28:43.544Z,7.25
2023-01-13T09:29:45.784Z,6.68
2023-01-13T09:30:48.012Z,4.75
2023-01-13T09:31:50.295Z,6.82
2023-01-13T09:33:12.543Z,4.70
2023-01-13T09:34:36.067Z,4.47
2023-01-13T09:35:38.239Z,3.60
2023-01-13T09:36:40.508Z,4.05
2023-01-13T09:37:43.023Z,4.38
2023-01-13T09:38:45.284Z,5.50
2023-01-13T09:39:47.470Z,3.95
2023-01-13T09:40:49.687Z,4.88
2023-01-13T09:42:16.362Z,5.88
2023-01-13T09:43:42.460Z,6.70
2023-01-13T09:44:58.996Z,5.65
2023-01-13T09:46:44.412Z,6.68
2023-01-13T09:48:09.907Z,5.75
2023-01-13T09:49:22.399Z,6.05
2023-01-13T09:51:51.263Z,6.72
2023-01-13T09:52:53.720Z,5.70
2023-01-13T09:54:20.319Z,6.78
2023-01-13T09:55:43.289Z,5.32
2023-01-13T09:56:47.905Z,8.77
2023-01-13T09:57:50.150Z,5.90
2023-01-13T09:58:52.498Z,7.78
2023-01-13T09:59:54.694Z,5.57
2023-01-13T10:01:15.185Z,5.22
2023-01-13T10:02:17.479Z,7.35
2023-01-13T10:03:26.522Z,7.28
2023-01-13T10:04:28.801Z,5.70
2023-01-13T10:05:59.921Z,4.45
2023-01-13T10:07:03.710Z,5.90
2023-01-13T10:08:28.210Z,5.80
2023-01-13T10:09:44.803Z,8.70
2023-01-13T10:10:50.143Z,6.80
2023-01-13T10:12:14.776Z,6.00
2023-01-13T10:13:29.103Z,7.40
2023-01-13T10:14:42.221Z,6.47
2023-01-13T10:16:10.502Z,9.02
2023-01-13T10:17:33.171Z,7.97
2023-01-13T10:18:50.220Z,7.85
2023-01-13T10:20:01.502Z,7.53
2023-01-13T10:21:03.673Z,5.20
2023-01-13T10:22:36.439Z,5.53
2023-01-13T10:23:44.405Z,8.02
2023-01-13T10:25:05.553Z,6.97
2023-01-13T10:26:34.263Z,5.07
2023-01-13T10:27:39.320Z,9.45
2023-01-13T10:28:41.560Z,9.35
2023-01-13T10:29:43.772Z,6.05
2023-01-13T10:30:47.617Z,7.05
2023-01-13T10:31:49.855Z,8.75
2023-01-13T10:32:57.876Z,3.95
2023-01-13T10:34:03.925Z,6.13
2023-01-13T10:35:06.344Z,4.35
2023-01-13T10:36:17.258Z,7.22
2023-01-13T10:37:22.450Z,5.80
2023-01-13T10:38:38.276Z,7.90
2023-01-13T10:39:46.015Z,7.80
2023-01-13T10:40:57.675Z,4.78
2023-01-13T10:42:13.061Z,7.85
2023-01-13T10:43:15.283Z,6.63
2023-01-13T10:44:18.857Z,7.05
2023-01-13T10:45:25.568Z,7.68
2023-01-13T10:46:29.597Z,8.50
2023-01-13T10:47:35.319Z,6.13
2023-01-13T10:48:37.532Z,6.25
2023-01-13T10:49:39.798Z,6.25
2023-01-13T10:50:42.660Z,8.38
2023-01-13T10:51:49.360Z,7.72
2023-01-13T10:53:03.380Z,6.60
2023-01-13T10:54:11.630Z,7.05
2023-01-13T10:55:34.150Z,8.00
2023-01-13T10:56:36.439Z,6.20
2023-01-13T10:57:38.681Z,9.63
2023-01-13T10:58:40.892Z,9.52
2023-01-13T10:59:43.133Z,7.30
2023-01-13T11:00:46.168Z,8.27
2023-01-13T11:02:26.495Z,9.45
2023-01-13T11:03:37.661Z,8.27
2023-01-13T11:04:55.735Z,8.15
2023-01-13T11:05:59.907Z,8.93
2023-01-13T11:07:04.837Z,7.10
2023-01-13T11:08:18.060Z,4.38
2023-01-13T11:09:22.644Z,7.82
2023-01-13T11:10:31.255Z,4.78
2023-01-13T11:11:38.852Z,7.70
2023-01-13T11:12:53.340Z,7.32
2023-01-13T11:14:21.291Z,9.77
2023-01-13T11:15:38.137Z,8.00
2023-01-13T11:16:52.880Z,9.02
2023-01-13T11:18:04.980Z,6.45
2023-01-13T11:19:15.213Z,7.05
2023-01-13T11:20:29.476Z,7.30
2023-01-13T11:21:43.315Z,9.52
2023-01-13T11:22:48.916Z,8.50
2023-01-13T11:24:15.114Z,6.15
2023-01-13T11:25:31.439Z,6.32
2023-01-13T11:26:56.600Z,7.88
2023-01-13T11:28:35.551Z,10.30
2023-01-13T11:30:09.707Z,5.97
2023-01-13T11:31:33.934Z,10.15
2023-01-13T11:32:44.219Z,5.22
2023-01-13T11:34:08.120Z,9.13
2023-01-13T11:35:18.699Z,7.55
2023-01-13T11:36:24.988Z,9.10
2023-01-13T11:37:31.034Z,6.97
2023-01-13T11:38:55.005Z,8.40
2023-01-13T11:40:12.068Z,7.60
2023-01-13T11:41:41.967Z,6.93
2023-01-13T11:42:50.977Z,7.60
2023-01-13T11:44:07.494Z,7.03
2023-01-13T11:45:41.115Z,6.97
2023-01-13T11:47:48.847Z,8.70
2023-01-13T11:48:51.369Z,7.38
2023-01-13T11:49:54.200Z,9.63
2023-01-13T11:51:07.890Z,6.97
2023-01-13T11:52:28.110Z,6.25
2023-01-13T11:54:04.044Z,8.80
2023-01-13T11:55:35.133Z,7.90
2023-01-13T11:57:14.212Z,8.20
2023-01-13T11:58:29.085Z,7.75
2023-01-13T11:59:53.024Z,5.65
2023-01-13T12:01:05.705Z,8.73
2023-01-13T12:02:45.262Z,9.68
2023-01-13T12:04:22.007Z,10.15
2023-01-13T12:05:40.914Z,9.05
2023-01-13T12:06:45.951Z,10.48
2023-01-13T12:07:48.160Z,10.80
2023-01-13T12:08:59.317Z,9.52
2023-01-13T12:10:19.619Z,7.10
2023-01-13T12:12:15.057Z,7.93
2023-01-13T12:13:45.267Z,12.25
2023-01-13T12:14:59.504Z,7.57
2023-01-13T12:16:12.180Z,3.80
2023-01-13T12:17:41.671Z,6.15
2023-01-13T12:19:21.375Z,6.55
2023-01-13T12:20:32.588Z,6.10
2023-01-13T12:22:04.792Z,8.70
2023-01-13T12:23:26.418Z,5.28
2023-01-13T12:24:35.241Z,6.57
2023-01-13T12:25:52.392Z,8.40
2023-01-13T12:26:58.826Z,5.05
2023-01-13T12:28:11.698Z,8.48
2023-01-13T12:29:19.739Z,8.20
2023-01-13T12:30:31.438Z,5.50
2023-01-13T12:31:38.930Z,8.68
2023-01-13T12:32:41.840Z,5.28
2023-01-13T12:34:02.656Z,8.20
2023-01-13T12:35:31.050Z,6.88
2023-01-13T12:36:58.571Z,10.60
2023-01-13T12:38:23.055Z,7.70
2023-01-13T12:39:50.640Z,6.43
2023-01-13T12:41:11.496Z,9.23
2023-01-13T12:42:37.616Z,10.68
2023-01-13T12:44:07.694Z,8.02
2023-01-13T12:45:10.237Z,7.85
2023-01-13T12:46:21.568Z,10.27
2023-01-13T12:47:37.715Z,6.63
2023-01-13T12:49:02.883Z,10.32
2023-01-13T12:50:26.281Z,8.52
2023-01-13T12:51:37.515Z,7.38
2023-01-13T12:52:45.565Z,9.07
2023-01-13T12:53:47.854Z,6.78
2023-01-13T12:54:49.994Z,11.65
2023-01-13T12:55:53.106Z,13.82
2023-01-13T12:56:55.466Z,8.90
2023-01-13T12:58:18.453Z,7.68
2023-01-13T13:00:23.074Z,11.00
2023-01-13T13:01:35.981Z,10.98
2023-01-13T13:02:41.089Z,7.15
2023-01-13T13:04:10.673Z,12.18
2023-01-13T13:05:25.128Z,12.43
2023-01-13T13:06:31.044Z,9.77
2023-01-13T13:08:07.511Z,8.52
2023-01-13T13:09:21.909Z,10.88
2023-01-13T13:10:34.063Z,8.50
2023-01-13T13:11:57.906Z,10.80
2023-01-13T13:13:18.187Z,10.07
2023-01-13T13:14:38.823Z,7.60
2023-01-13T13:15:41.673Z,7.82
2023-01-13T13:16:51.602Z,8.90
2023-01-13T13:17:59.892Z,9.13
2023-01-13T13:19:21.255Z,10.43
2023-01-13T13:20:54.680Z,6.75
2023-01-13T13:22:12.139Z,8.50
2023-01-13T13:23:28.576Z,7.07
2023-01-13T13:24:30.973Z,7.57
2023-01-13T13:25:33.193Z,7.63
2023-01-13T13:26:45.486Z,10.48
2023-01-13T13:27:59.037Z,6.78
2023-01-13T13:29:27.385Z,8.68
2023-01-13T13:30:39.246Z,7.05
2023-01-13T13:31:59.325Z,8.40
2023-01-13T13:33:23.259Z,10.68
2023-01-13T13:34:49.739Z,8.27
2023-01-13T13:36:10.004Z,8.73
2023-01-13T13:37:28.537Z,8.90
2023-01-13T13:39:18.308Z,6.85
2023-01-13T13:40:39.322Z,7.05
2023-01-13T13:42:03.564Z,7.38
2023-01-13T13:43:32.631Z,7.55
2023-01-13T13:45:04.424Z,6.60
2023-01-13T13:46:42.679Z,6.20
2023-01-13T13:47:44.915Z,8.00
2023-01-13T13:48:53.308Z,8.02
2023-01-13T13:49:56.586Z,6.75
2023-01-13T13:51:02.795Z,7.55
2023-01-13T13:52:35.577Z,7.70
2023-01-13T13:53:42.018Z,10.65
2023-01-13T13:54:47.904Z,7.95
2023-01-13T13:56:01.538Z,7.03
2023-01-13T13:57:03.769Z,8.77
2023-01-13T13:58:15.506Z,7.20
2023-01-13T13:59:22.716Z,8.38
2023-01-13T14:00:29.075Z,9.90
2023-01-13T14:01:37.967Z,12.30
2023-01-13T14:02:46.704Z,11.20
2023-01-13T14:04:04.465Z,10.10
2023-01-13T14:05:25.725Z,11.27
2023-01-13T14:06:29.332Z,9.18
2023-01-13T14:07:31.640Z,9.18
2023-01-13T14:08:46.093Z,9.82
2023-01-13T14:09:54.166Z,10.82
2023-01-13T14:10:56.614Z,11.57
2023-01-13T14:12:06.487Z,11.38
2023-01-13T14:13:27.735Z,9.57
2023-01-13T14:14:30.372Z,12.40
2023-01-13T14:15:36.094Z,10.35
2023-01-13T14:16:40.543Z,13.90
2023-01-13T14:17:42.775Z,10.48
2023-01-13T14:18:48.424Z,11.00
2023-01-13T14:20:19.936Z,12.02
2023-01-13T14:21:29.632Z,9.77
2023-01-13T14:22:32.798Z,7.00
2023-01-13T14:23:35.073Z,12.50
2023-01-13T14:24:46.625Z,10.25
2023-01-13T14:25:50.993Z,12.82
2023-01-13T14:26:53.285Z,10.98
2023-01-13T14:27:57.703Z,10.82
2023-01-13T14:29:01.868Z,11.82
2023-01-13T14:30:04.603Z,14.52
2023-01-13T14:31:09.139Z,9.45
2023-01-13T14:32:17.250Z,10.68
2023-01-13T14:33:29.881Z,9.43
2023-01-13T14:34:33.994Z,10.45
2023-01-13T14:35:36.299Z,15.25
2023-01-13T14:36:40.774Z,13.05
2023-01-13T14:37:44.202Z,10.30
2023-01-13T14:39:13.047Z,13.07
2023-01-13T14:40:44.381Z,8.65
2023-01-13T14:41:49.477Z,10.10
2023-01-13T14:43:02.170Z,11.02
2023-01-13T14:44:19.722Z,13.95
2023-01-13T14:45:25.111Z,7.60
2023-01-13T14:46:45.042Z,11.45
2023-01-13T14:47:52.741Z,12.15
2023-01-13T14:49:01.083Z,13.52
2023-01-13T14:50:07.525Z,15.27
2023-01-13T14:51:13.270Z,10.30
2023-01-13T14:52:24.021Z,9.52
2023-01-13T14:53:46.953Z,14.95
2023-01-13T14:55:55.221Z,10.20
2023-01-13T14:57:28.263Z,10.63
2023-01-13T14:58:30.500Z,12.63
2023-01-13T14:59:35.331Z,10.23
2023-01-13T15:00:37.556Z,8.02
2023-01-13T15:01:39.873Z,10.00
2023-01-13T15:02:57.267Z,10.27
2023-01-13T15:04:25.113Z,9.98
2023-01-13T15:05:27.226Z,8.80
2023-01-13T15:06:29.461Z,7.25
2023-01-13T15:07:32.511Z,8.52
2023-01-13T15:08:36.904Z,9.45
2023-01-13T15:09:41.852Z,8.35
2023-01-13T15:11:02.194Z,7.22
2023-01-13T15:12:35.633Z,7.32
2023-01-13T15:13:43.539Z,7.75
2023-01-13T15:14:55.163Z,7.95
2023-01-13T15:15:59.632Z,6.07
2023-01-13T15:17:02.877Z,8.95
2023-01-13T15:18:14.677Z,7.28
2023-01-13T15:19:16.896Z,8.63
2023-01-13T15:20:21.584Z,7.47
2023-01-13T15:21:23.956Z,8.45
2023-01-13T15:22:26.400Z,12.23
2023-01-13T15:23:28.637Z,14.00
2023-01-13T15:24:30.802Z,9.77
2023-01-13T15:25:34.971Z,9.52
2023-01-13T15:26:37.289Z,10.15
2023-01-13T15:27:39.599Z,11.18
2023-01-13T15:28:41.815Z,8.10